Regal — V7TE7 — position and weather

sailwx.info

Track history (hours):
 
Tides and Currents Weather Stations Pressure Air Temp Water Temp Dewpoint Dewpoint Depression Visibility Wind Speed Wind Dir Waves Ship Positions

Regal

Last reported at 2017-Nov-05 14:23 UTC. Time now 2017-Nov-19 08:39 UTC.
Position S 28°46' E 032°36'.
Warning: this ship's position is 13 days out of date.

Length 190 m; draft 6.1 m.

Type: Ship. MMSI: 538006950.

Date/timePositionNaut miles runAvg speedWind from/ knotsBaromVisibWave heightAir tempDewpointWater temp
2017-Nov-05 14:23S 28°46' E 032°36'710.1
2017-Nov-05 13:43S 28°47' E 032°28'22 9.4
2017-Nov-05 11:23S 28°48' E 032°03'1 2.0
2017-Nov-05 10:59S 28°49' E 032°03'0 0.0
2017-Nov-05 10:29S 28°49' E 032°03'0 0.0
2017-Nov-05 09:59S 28°49' E 032°03'0 0.0
2017-Nov-05 09:26S 28°49' E 032°03'0 0.0
2017-Nov-05 08:38S 28°49' E 032°03'0 0.0
2017-Nov-05 08:29S 28°49' E 032°03'0 0.0
2017-Nov-05 06:41S 28°49' E 032°03'0 0.0
2017-Nov-05 06:20S 28°49' E 032°03'0 0.0
2017-Nov-05 05:59S 28°49' E 032°03'0 0.0
2017-Nov-05 04:38S 28°49' E 032°03'0 0.0
2017-Nov-05 04:26S 28°49' E 032°03'0 0.0
2017-Nov-05 03:56S 28°49' E 032°03'0 0.0
2017-Nov-05 03:26S 28°49' E 032°03'0 0.0
2017-Nov-05 02:50S 28°49' E 032°03'0 0.0
2017-Nov-05 02:26S 28°49' E 032°03'0 0.0
2017-Nov-05 01:56S 28°49' E 032°03'0 0.0
2017-Nov-05 01:26S 28°49' E 032°03'0 0.0
2017-Nov-05 00:56S 28°49' E 032°03'0 0.0
2017-Nov-05 00:20S 28°49' E 032°03'0 0.0
2017-Nov-04 23:59S 28°49' E 032°03'0 0.0
2017-Nov-04 23:17S 28°49' E 032°03'0 0.0
2017-Nov-04 22:56S 28°49' E 032°03'0 0.0
2017-Nov-04 22:26S 28°49' E 032°03'0 0.0
2017-Nov-04 21:59S 28°49' E 032°03'0 0.0
2017-Nov-04 21:14S 28°49' E 032°03'0 0.0
2017-Nov-04 20:59S 28°49' E 032°03'0 0.0
2017-Nov-04 17:14S 28°49' E 032°03'0 0.0
2017-Nov-04 16:47S 28°49' E 032°03'0 0.0
2017-Nov-04 16:29S 28°49' E 032°03'0 0.0
2017-Nov-04 15:59S 28°49' E 032°03'0 0.0
2017-Nov-04 15:29S 28°49' E 032°03'0 0.0
2017-Nov-04 14:56S 28°49' E 032°03'0 0.0
2017-Nov-04 14:29S 28°49' E 032°03'0 0.0
2017-Nov-04 13:59S 28°49' E 032°03'0 0.0
2017-Nov-04 13:29S 28°49' E 032°03'0 0.0
2017-Nov-04 12:59S 28°49' E 032°03'0 0.0
2017-Nov-04 12:29S 28°49' E 032°03'0 0.0
2017-Nov-04 11:59S 28°49' E 032°03'0 0.0
2017-Nov-04 11:29S 28°49' E 032°03'0 0.0
2017-Nov-04 10:53S 28°49' E 032°03'0 0.0
2017-Nov-04 10:29S 28°49' E 032°03'0 0.0
2017-Nov-04 09:59S 28°49' E 032°03'0 0.0
2017-Nov-04 09:29S 28°49' E 032°03'0 0.0
2017-Nov-04 08:53S 28°49' E 032°03'0 0.0
2017-Nov-04 08:29S 28°49' E 032°03'0 0.0
2017-Nov-04 07:56S 28°49' E 032°03'0 0.0
2017-Nov-04 06:05S 28°49' E 032°03'2 2.7
2017-Nov-04 05:16S 28°49' E 032°05'4 9.1
2017-Nov-04 04:49S 28°52' E 032°08'1 2.4
2017-Nov-04 04:24S 28°51' E 032°08'2 4.4
2017-Nov-04 04:01S 28°53' E 032°09'4 6.7
2017-Nov-04 03:22S 28°57' E 032°10'0 0.3
2017-Nov-04 02:09S 28°57' E 032°10'0 0.0
2017-Nov-04 01:51S 28°57' E 032°10'0 0.0
2017-Nov-03 22:00S 28°57' E 032°10'0 0.0
2017-Nov-03 21:24S 28°57' E 032°10'0 0.0
2017-Nov-03 20:51S 28°57' E 032°10'0 0.0
2017-Nov-03 19:24S 28°57' E 032°10'0 0.0
2017-Nov-03 17:57S 28°57' E 032°10'0 0.0
2017-Nov-03 17:30S 28°57' E 032°10'0 0.1
2017-Nov-03 16:57S 28°57' E 032°10'0 0.0
2017-Nov-03 16:28S 28°57' E 032°10'0 0.1
2017-Nov-03 15:58S 28°57' E 032°10'0 0.0
2017-Nov-03 15:28S 28°57' E 032°10'0 0.0
2017-Nov-03 14:55S 28°57' E 032°10'0 0.0
2017-Nov-03 14:28S 28°57' E 032°10'0 0.1
2017-Nov-03 13:58S 28°57' E 032°10'0 0.0
2017-Nov-03 13:22S 28°57' E 032°10'0 0.0
2017-Nov-03 12:58S 28°57' E 032°10'0 0.0
2017-Nov-03 12:28S 28°57' E 032°10'0 0.0
2017-Nov-03 11:58S 28°57' E 032°10'0 0.0
2017-Nov-03 11:28S 28°57' E 032°10'0 0.0
2017-Nov-03 10:58S 28°57' E 032°10'0 0.0
2017-Nov-03 07:01S 28°57' E 032°10'0 0.1
2017-Nov-03 06:55S 28°57' E 032°10'0 0.1
2017-Nov-03 06:16S 28°57' E 032°10'0 0.0
2017-Nov-03 05:58S 28°57' E 032°10'0 0.0
2017-Nov-03 05:25S 28°57' E 032°10'0 0.0
2017-Nov-03 00:37S 28°57' E 032°10'0 0.0
2017-Nov-03 00:04S 28°57' E 032°10'0 0.0
2017-Nov-02 23:34S 28°57' E 032°10'0 0.0
2017-Nov-02 23:16S 28°57' E 032°10'0 0.0
2017-Nov-02 21:49S 28°57' E 032°10'0 0.0
2017-Nov-02 21:25S 28°57' E 032°10'0 0.0
2017-Nov-02 20:58S 28°57' E 032°10'0 0.0
2017-Nov-02 20:28S 28°57' E 032°10'0 0.0
2017-Nov-02 19:58S 28°57' E 032°10'0 0.0
2017-Nov-02 19:22S 28°57' E 032°10'0 0.0
2017-Nov-02 18:55S 28°57' E 032°10'0 0.0
2017-Nov-02 18:22S 28°57' E 032°10'0 0.0
2017-Nov-02 17:58S 28°57' E 032°10'0 0.0
2017-Nov-02 16:52S 28°57' E 032°10'0 0.0
2017-Nov-02 16:28S 28°57' E 032°10'0 0.0
2017-Nov-02 15:55S 28°57' E 032°10'0 0.0
2017-Nov-02 15:28S 28°57' E 032°10'0 0.0
2017-Nov-02 14:58S 28°57' E 032°10'0 0.0
2017-Nov-02 14:28S 28°57' E 032°10'0 0.0
2017-Nov-02 13:58S 28°57' E 032°10'0 0.0
2017-Nov-02 13:28S 28°57' E 032°10'0 0.0
2017-Nov-02 12:58S 28°57' E 032°10'0 0.0
2017-Nov-02 12:28S 28°57' E 032°10'0 0.0
2017-Nov-02 11:58S 28°57' E 032°10'0 0.0
2017-Nov-02 11:28S 28°57' E 032°10'0 0.0
2017-Nov-02 10:58S 28°57' E 032°10'0 0.0
2017-Nov-02 10:25S 28°57' E 032°10'0 0.0
2017-Nov-02 09:58S 28°57' E 032°10'0 0.0
2017-Nov-02 09:28S 28°57' E 032°10'0 0.0
2017-Nov-02 08:58S 28°57' E 032°10'0 0.1
2017-Nov-02 08:25S 28°57' E 032°10'0 0.0
2017-Nov-02 07:55S 28°57' E 032°10'0 0.0
2017-Nov-02 07:22S 28°57' E 032°10'0 0.0
2017-Nov-02 04:46S 28°57' E 032°10'0 0.0
2017-Oct-31 20:11S 28°57' E 032°10'0 0.0
2017-Oct-31 19:44S 28°57' E 032°10'0 0.1
2017-Oct-31 19:26S 28°57' E 032°10'0 0.0
2017-Oct-31 18:59S 28°57' E 032°10'0 0.0
2017-Oct-31 18:29S 28°57' E 032°10'0 0.0
2017-Oct-31 17:53S 28°57' E 032°10'0 0.0
2017-Oct-31 16:14S 28°57' E 032°10'0 0.0
2017-Oct-31 15:59S 28°57' E 032°10'0 0.1
2017-Oct-31 15:26S 28°57' E 032°10'0 0.0
2017-Oct-31 14:59S 28°57' E 032°10'0 0.1
2017-Oct-31 14:26S 28°57' E 032°10'0 0.0
2017-Oct-31 13:56S 28°57' E 032°10'0 0.0
2017-Oct-31 13:29S 28°57' E 032°10'0 0.0
2017-Oct-31 12:59S 28°57' E 032°10'0 0.1
2017-Oct-31 12:29S 28°57' E 032°10'0 0.0
2017-Oct-31 11:59S 28°57' E 032°10'0 0.0
2017-Oct-31 11:29S 28°57' E 032°10'0 0.0
2017-Oct-31 10:59S 28°57' E 032°10'0 0.0
2017-Oct-31 10:29S 28°57' E 032°10'0 0.0
2017-Oct-31 09:59S 28°57' E 032°10'0 0.0
2017-Oct-31 09:26S 28°57' E 032°10'1 3.2
2017-Oct-31 09:00S 28°58' E 032°09'611.1
2017-Oct-31 08:30S 29°03' E 032°05'611.1
2017-Oct-31 08:00S 29°08' E 032°02'611.2
2017-Oct-31 07:30S 29°12' E 031°59'611.1
2017-Oct-31 07:00S 29°17' E 031°55'811.2
2017-Oct-31 06:20S 29°23' E 031°50'411.2
2017-Oct-31 06:00S 29°26' E 031°47'611.6
2017-Oct-31 05:30S 29°31' E 031°44'611.7
2017-Oct-31 05:00S 29°36' E 031°41'611.5
2017-Oct-31 04:30S 29°41' E 031°37'611.6
2017-Oct-31 04:00S 29°45' E 031°33'510.9
2017-Oct-31 03:30S 29°50' E 031°29'510.2
2017-Oct-31 03:00S 29°54' E 031°26'510.4
2017-Oct-31 02:30S 29°58' E 031°23'510.6
2017-Oct-31 02:00S 30°03' E 031°20'510.4
2017-Oct-31 01:30S 30°07' E 031°16'510.9
2017-Oct-31 01:00S 30°11' E 031°12'510.9
2017-Oct-31 00:30S 30°16' E 031°08'611.3
2017-Oct-31 00:00S 30°20' E 031°05'510.8
2017-Oct-30 23:30S 30°25' E 031°02'510.2
2017-Oct-30 23:00S 30°29' E 030°59'5 9.8
2017-Oct-30 22:30S 30°34' E 030°55'5 9.4
2017-Oct-30 22:00S 30°37' E 030°52'5 9.6
2017-Oct-30 21:30S 30°41' E 030°49'5 9.8
2017-Oct-30 21:00S 30°45' E 030°46'5 9.9
2017-Oct-30 20:28S 30°50' E 030°43'5 9.9
2017-Oct-30 19:59S 30°54' E 030°40'  
Track history (hours):
 
Tides and Currents Weather Stations Pressure Air Temp Water Temp Dewpoint Dewpoint Depression Visibility Wind Speed Wind Dir Waves Ship Positions

Regal

Last reported at 2017-Nov-05 14:23 UTC. Time now 2017-Nov-19 08:39 UTC.
Position S 28°46' E 032°36'.
Warning: this ship's position is 13 days out of date.

Length 190 m; draft 6.1 m.

Type: Ship. MMSI: 538006950.

Date/timePositionNaut miles runAvg speedWind from/ knotsBaromVisibWave heightAir tempDewpointWater temp
2017-Nov-05 14:23S 28°46' E 032°36'710.1
2017-Nov-05 13:43S 28°47' E 032°28'22 9.4
2017-Nov-05 11:23S 28°48' E 032°03'1 2.0
2017-Nov-05 10:59S 28°49' E 032°03'0 0.0
2017-Nov-05 10:29S 28°49' E 032°03'0 0.0
2017-Nov-05 09:59S 28°49' E 032°03'0 0.0
2017-Nov-05 09:26S 28°49' E 032°03'0 0.0
2017-Nov-05 08:38S 28°49' E 032°03'0 0.0
2017-Nov-05 08:29S 28°49' E 032°03'0 0.0
2017-Nov-05 06:41S 28°49' E 032°03'0 0.0
2017-Nov-05 06:20S 28°49' E 032°03'0 0.0
2017-Nov-05 05:59S 28°49' E 032°03'0 0.0
2017-Nov-05 04:38S 28°49' E 032°03'0 0.0
2017-Nov-05 04:26S 28°49' E 032°03'0 0.0
2017-Nov-05 03:56S 28°49' E 032°03'0 0.0
2017-Nov-05 03:26S 28°49' E 032°03'0 0.0
2017-Nov-05 02:50S 28°49' E 032°03'0 0.0
2017-Nov-05 02:26S 28°49' E 032°03'0 0.0
2017-Nov-05 01:56S 28°49' E 032°03'0 0.0
2017-Nov-05 01:26S 28°49' E 032°03'0 0.0
2017-Nov-05 00:56S 28°49' E 032°03'0 0.0
2017-Nov-05 00:20S 28°49' E 032°03'0 0.0
2017-Nov-04 23:59S 28°49' E 032°03'0 0.0
2017-Nov-04 23:17S 28°49' E 032°03'0 0.0
2017-Nov-04 22:56S 28°49' E 032°03'0 0.0
2017-Nov-04 22:26S 28°49' E 032°03'0 0.0
2017-Nov-04 21:59S 28°49' E 032°03'0 0.0
2017-Nov-04 21:14S 28°49' E 032°03'0 0.0
2017-Nov-04 20:59S 28°49' E 032°03'0 0.0
2017-Nov-04 17:14S 28°49' E 032°03'0 0.0
2017-Nov-04 16:47S 28°49' E 032°03'0 0.0
2017-Nov-04 16:29S 28°49' E 032°03'0 0.0
2017-Nov-04 15:59S 28°49' E 032°03'0 0.0
2017-Nov-04 15:29S 28°49' E 032°03'0 0.0
2017-Nov-04 14:56S 28°49' E 032°03'0 0.0
2017-Nov-04 14:29S 28°49' E 032°03'0 0.0
2017-Nov-04 13:59S 28°49' E 032°03'0 0.0
2017-Nov-04 13:29S 28°49' E 032°03'0 0.0
2017-Nov-04 12:59S 28°49' E 032°03'0 0.0
2017-Nov-04 12:29S 28°49' E 032°03'0 0.0
2017-Nov-04 11:59S 28°49' E 032°03'0 0.0
2017-Nov-04 11:29S 28°49' E 032°03'0 0.0
2017-Nov-04 10:53S 28°49' E 032°03'0 0.0
2017-Nov-04 10:29S 28°49' E 032°03'0 0.0
2017-Nov-04 09:59S 28°49' E 032°03'0 0.0
2017-Nov-04 09:29S 28°49' E 032°03'0 0.0
2017-Nov-04 08:53S 28°49' E 032°03'0 0.0
2017-Nov-04 08:29S 28°49' E 032°03'0 0.0
2017-Nov-04 07:56S 28°49' E 032°03'0 0.0
2017-Nov-04 06:05S 28°49' E 032°03'2 2.7
2017-Nov-04 05:16S 28°49' E 032°05'4 9.1
2017-Nov-04 04:49S 28°52' E 032°08'1 2.4
2017-Nov-04 04:24S 28°51' E 032°08'2 4.4
2017-Nov-04 04:01S 28°53' E 032°09'4 6.7
2017-Nov-04 03:22S 28°57' E 032°10'0 0.3
2017-Nov-04 02:09S 28°57' E 032°10'0 0.0
2017-Nov-04 01:51S 28°57' E 032°10'0 0.0
2017-Nov-03 22:00S 28°57' E 032°10'0 0.0
2017-Nov-03 21:24S 28°57' E 032°10'0 0.0
2017-Nov-03 20:51S 28°57' E 032°10'0 0.0
2017-Nov-03 19:24S 28°57' E 032°10'0 0.0
2017-Nov-03 17:57S 28°57' E 032°10'0 0.0
2017-Nov-03 17:30S 28°57' E 032°10'0 0.1
2017-Nov-03 16:57S 28°57' E 032°10'0 0.0
2017-Nov-03 16:28S 28°57' E 032°10'0 0.1
2017-Nov-03 15:58S 28°57' E 032°10'0 0.0
2017-Nov-03 15:28S 28°57' E 032°10'0 0.0
2017-Nov-03 14:55S 28°57' E 032°10'0 0.0
2017-Nov-03 14:28S 28°57' E 032°10'0 0.1
2017-Nov-03 13:58S 28°57' E 032°10'0 0.0
2017-Nov-03 13:22S 28°57' E 032°10'0 0.0
2017-Nov-03 12:58S 28°57' E 032°10'0 0.0
2017-Nov-03 12:28S 28°57' E 032°10'0 0.0
2017-Nov-03 11:58S 28°57' E 032°10'0 0.0
2017-Nov-03 11:28S 28°57' E 032°10'0 0.0
2017-Nov-03 10:58S 28°57' E 032°10'0 0.0
2017-Nov-03 07:01S 28°57' E 032°10'0 0.1
2017-Nov-03 06:55S 28°57' E 032°10'0 0.1
2017-Nov-03 06:16S 28°57' E 032°10'0 0.0
2017-Nov-03 05:58S 28°57' E 032°10'0 0.0
2017-Nov-03 05:25S 28°57' E 032°10'0 0.0
2017-Nov-03 00:37S 28°57' E 032°10'0 0.0
2017-Nov-03 00:04S 28°57' E 032°10'0 0.0
2017-Nov-02 23:34S 28°57' E 032°10'0 0.0
2017-Nov-02 23:16S 28°57' E 032°10'0 0.0
2017-Nov-02 21:49S 28°57' E 032°10'0 0.0
2017-Nov-02 21:25S 28°57' E 032°10'0 0.0
2017-Nov-02 20:58S 28°57' E 032°10'0 0.0
2017-Nov-02 20:28S 28°57' E 032°10'0 0.0
2017-Nov-02 19:58S 28°57' E 032°10'0 0.0
2017-Nov-02 19:22S 28°57' E 032°10'0 0.0
2017-Nov-02 18:55S 28°57' E 032°10'0 0.0
2017-Nov-02 18:22S 28°57' E 032°10'0 0.0
2017-Nov-02 17:58S 28°57' E 032°10'0 0.0
2017-Nov-02 16:52S 28°57' E 032°10'0 0.0
2017-Nov-02 16:28S 28°57' E 032°10'0 0.0
2017-Nov-02 15:55S 28°57' E 032°10'0 0.0
2017-Nov-02 15:28S 28°57' E 032°10'0 0.0
2017-Nov-02 14:58S 28°57' E 032°10'0 0.0
2017-Nov-02 14:28S 28°57' E 032°10'0 0.0
2017-Nov-02 13:58S 28°57' E 032°10'0 0.0
2017-Nov-02 13:28S 28°57' E 032°10'0 0.0
2017-Nov-02 12:58S 28°57' E 032°10'0 0.0
2017-Nov-02 12:28S 28°57' E 032°10'0 0.0
2017-Nov-02 11:58S 28°57' E 032°10'0 0.0
2017-Nov-02 11:28S 28°57' E 032°10'0 0.0
2017-Nov-02 10:58S 28°57' E 032°10'0 0.0
2017-Nov-02 10:25S 28°57' E 032°10'0 0.0
2017-Nov-02 09:58S 28°57' E 032°10'0 0.0
2017-Nov-02 09:28S 28°57' E 032°10'0 0.0
2017-Nov-02 08:58S 28°57' E 032°10'0 0.1
2017-Nov-02 08:25S 28°57' E 032°10'0 0.0
2017-Nov-02 07:55S 28°57' E 032°10'0 0.0
2017-Nov-02 07:22S 28°57' E 032°10'0 0.0
2017-Nov-02 04:46S 28°57' E 032°10'0 0.0
2017-Oct-31 20:11S 28°57' E 032°10'0 0.0
2017-Oct-31 19:44S 28°57' E 032°10'0 0.1
2017-Oct-31 19:26S 28°57' E 032°10'0 0.0
2017-Oct-31 18:59S 28°57' E 032°10'0 0.0
2017-Oct-31 18:29S 28°57' E 032°10'0 0.0
2017-Oct-31 17:53S 28°57' E 032°10'0 0.0
2017-Oct-31 16:14S 28°57' E 032°10'0 0.0
2017-Oct-31 15:59S 28°57' E 032°10'0 0.1
2017-Oct-31 15:26S 28°57' E 032°10'0 0.0
2017-Oct-31 14:59S 28°57' E 032°10'0 0.1
2017-Oct-31 14:26S 28°57' E 032°10'0 0.0
2017-Oct-31 13:56S 28°57' E 032°10'0 0.0
2017-Oct-31 13:29S 28°57' E 032°10'0 0.0
2017-Oct-31 12:59S 28°57' E 032°10'0 0.1
2017-Oct-31 12:29S 28°57' E 032°10'0 0.0
2017-Oct-31 11:59S 28°57' E 032°10'0 0.0
2017-Oct-31 11:29S 28°57' E 032°10'0 0.0
2017-Oct-31 10:59S 28°57' E 032°10'0 0.0
2017-Oct-31 10:29S 28°57' E 032°10'0 0.0
2017-Oct-31 09:59S 28°57' E 032°10'0 0.0
2017-Oct-31 09:26S 28°57' E 032°10'1 3.2
2017-Oct-31 09:00S 28°58' E 032°09'611.1
2017-Oct-31 08:30S 29°03' E 032°05'611.1
2017-Oct-31 08:00S 29°08' E 032°02'611.2
2017-Oct-31 07:30S 29°12' E 031°59'611.1
2017-Oct-31 07:00S 29°17' E 031°55'811.2
2017-Oct-31 06:20S 29°23' E 031°50'411.2
2017-Oct-31 06:00S 29°26' E 031°47'611.6
2017-Oct-31 05:30S 29°31' E 031°44'611.7
2017-Oct-31 05:00S 29°36' E 031°41'611.5
2017-Oct-31 04:30S 29°41' E 031°37'611.6
2017-Oct-31 04:00S 29°45' E 031°33'510.9
2017-Oct-31 03:30S 29°50' E 031°29'510.2
2017-Oct-31 03:00S 29°54' E 031°26'510.4
2017-Oct-31 02:30S 29°58' E 031°23'510.6
2017-Oct-31 02:00S 30°03' E 031°20'510.4
2017-Oct-31 01:30S 30°07' E 031°16'510.9
2017-Oct-31 01:00S 30°11' E 031°12'510.9
2017-Oct-31 00:30S 30°16' E 031°08'611.3
2017-Oct-31 00:00S 30°20' E 031°05'510.8
2017-Oct-30 23:30S 30°25' E 031°02'510.2
2017-Oct-30 23:00S 30°29' E 030°59'5 9.8
2017-Oct-30 22:30S 30°34' E 030°55'5 9.4
2017-Oct-30 22:00S 30°37' E 030°52'5 9.6
2017-Oct-30 21:30S 30°41' E 030°49'5 9.8
2017-Oct-30 21:00S 30°45' E 030°46'5 9.9
2017-Oct-30 20:28S 30°50' E 030°43'5 9.9
2017-Oct-30 19:59S 30°54' E 030°40'  

Dump ship's entire track history